Airfield :
LOGIN :

Register | Disclaimer

   EN    FR    IT 

 










Legend :    VFR   Marginal VFR   IFR   Intensive IFR   Very Intensive IFR
Visi :
Ceiling :
>= 8 km
>= 3000ft
5 to 8 km
1000 to 3000 ft
1500m to 5 km
500 to 1000 ft
800 to 1500m
200 to 500 ft
< 800m
< 200 ft
Symbols :   Thunderstorms  Fog  Heavy snow  Heavy precipitations  Wind > 20 kt
SIGMETs :     Misc.  Thunderstorms  Icing  Turbulence  Mountain Waves  Volcanic Ashes







- Airport Elevation : 357 ft
- IATA code : TUF
- Download approach charts


LFOT - Tours

CURRENT METAR :
  • 181400Z AUTO 06008KT 010V100 CAVOK 23/10 Q1016 NOSIG

EXPIRED METARs :
  • 181330Z AUTO 02006KT 340V080 CAVOK 22/09 Q1016 NOSIG
  • 181300Z AUTO 06005KT 020V100 CAVOK 22/09 Q1016 NOSIG
  • 181230Z AUTO 07008KT 030V100 CAVOK 21/09 Q1016 NOSIG
  • 181200Z AUTO 06006KT 340V090 CAVOK 21/09 Q1016 NOSIG
  • 181130Z AUTO 06008KT 030V110 CAVOK 20/09 Q1016 NOSIG

TAF TAF LFOT
Valid from the 18 at 12:00 until the 19 at 12:00 UTC


181100Z 1812/1912 07005KT CAVOK
BECMG 1909/1912 33005KT
No reported NOTAMs for that airfield.



MET'MAP, your aeronautical weather chart ! - Copyright ORBIFLY December 2007 - Disclaimer

ORBIFLY MET'MAP TEAM :

Programming & Development : Alexandra Zaïnal
Concept & Development : Baudouin d'Aumeries
Co-Development & Prog : Marc-Olivier Méhu
Technical & hardware support : Manuel Goepfert

Contact : metmap@orbifly.com




SOURCES & CREDITS :

   NOAA